Latest Weather Observations for Adelaide

IDS60901

Issued at 2:31 pm CST Tuesday 23 May 2017 (issued every 10 minutes, with the page automatically refreshed every 10 minutes)

About weather observations | Map of Adelaide area stations | Latest observations for Adelaide area | Other Formats
Station Details ID: 023090 Name: KENT TOWN Lat: -34.92 Lon: 138.62 Height: 48.0 m
Data from the previous 72 hours. | See also: Recent months at Adelaide
Date/Time
CST
Temp
°C
App
Temp
°C
Dew
Point
°C
Rel
Hum
%
Delta-T
°C
Wind Press
QNH
hPa
Press
MSL
hPa
Rain since
9am
mm
Dir  Spd
km/h
Gust
km/h
Spd
kts
Gust
kts
23/02:00pm 18.8 15.0 7.6 48 5.7 WNW 17 30 9 16 1016.1 1016.1 0.0
23/01:30pm 18.3 15.1 9.8 57 4.5 NW 17 26 9 14 1016.4 1016.4 0.0
23/01:00pm 17.9 15.1 10.0 60 4.2 NW 15 26 8 14 1016.8 1016.8 0.0
23/12:30pm 17.2 14.4 11.5 69 3.1 NW 17 26 9 14 1017.0 1017.0 0.0
23/12:00pm 17.6 15.1 11.1 65 3.5 WNW 15 26 8 14 1017.4 1017.4 0.0
23/11:30am 16.7 14.8 11.7 72 2.7 NW 13 24 7 13 1017.7 1017.7 0.0
23/11:00am 16.8 15.2 12.8 77 2.2 N 13 20 7 11 1018.1 1018.1 0.0
23/10:30am 15.4 14.6 12.9 85 1.4 NNW 9 13 5 7 1018.5 1018.5 0.0
23/10:00am 14.2 13.3 12.7 91 0.8 N 9 15 5 8 1018.7 1018.7 0.0
23/09:30am 13.7 12.9 12.8 94 0.5 N 9 15 5 8 1018.8 1018.8 0.0
23/09:00am 13.4 12.6 13.0 97 0.2 NNE 9 13 5 7 1018.6 1018.6 1.6
23/08:30am 13.3 12.9 13.1 99 0.1 NNE 7 11 4 6 1018.4 1018.4 1.6
23/08:00am 13.1 12.9 12.9 99 0.1 NNE 6 11 3 6 1017.8 1017.8 1.6
23/07:30am 12.8 12.3 12.6 99 0.1 NE 7 9 4 5 1017.7 1017.7 1.6
23/07:00am 12.9 13.7 12.5 97 0.2 CALM 0 0 0 0 1017.8 1017.8 1.6
23/06:30am 12.8 13.2 12.4 97 0.2 NNE 2 7 1 4 1017.8 1017.8 1.6
23/06:00am 12.6 13.2 12.0 96 0.3 CALM 0 0 0 0 1017.4 1017.4 1.6
23/05:30am 12.9 12.9 12.5 97 0.2 NNE 4 9 2 5 1017.5 1017.5 1.6
23/05:00am 13.0 13.8 12.4 96 0.3 CALM 0 0 0 0 1017.4 1017.4 1.6
23/04:30am 13.2 13.6 12.6 96 0.3 N 2 7 1 4 1016.8 1016.8 1.6
23/04:00am 13.5 14.0 12.8 95 0.4 NNE 2 6 1 3 1016.8 1016.8 1.6
23/03:30am 13.7 14.3 13.0 96 0.4 NNE 2 6 1 3 1017.0 1017.0 1.6
23/03:00am 13.4 14.2 12.7 95 0.4 CALM 0 0 0 0 1017.0 1017.0 1.6
23/02:30am 13.9 14.8 13.0 94 0.5 CALM 0 0 0 0 1016.9 1016.9 1.6
23/02:00am 14.1 15.1 13.2 94 0.5 CALM 0 0 0 0 1017.0 1017.0 1.6
23/01:30am 14.5 14.4 13.2 92 0.7 NNW 6 7 3 4 1017.0 1017.0 1.6
23/01:00am 14.5 14.4 13.2 92 0.7 NE 6 7 3 4 1017.0 1017.0 1.6
23/12:30am 14.6 15.6 13.3 92 0.7 CALM 0 0 0 0 1017.2 1017.2 1.6
23/12:00am 14.5 15.5 13.2 92 0.7 CALM 0 0 0 0 1017.2 1017.2 1.6
 
Date/Time
CST
Temp
°C
App
Temp
°C
Dew
Point
°C
Rel
Hum
%
Delta-T
°C
Wind Press
QNH
hPa
Press
MSL
hPa
Rain since
9am
mm
Dir  Spd
km/h
Gust
km/h
Spd
kts
Gust
kts
22/11:30pm 14.4 14.2 13.1 92 0.7 E 6 7 3 4 1017.1 1017.1 1.6
22/11:00pm 14.4 15.3 12.9 91 0.8 CALM 0 6 0 3 1017.1 1017.1 1.6
22/10:30pm 14.7 14.5 13.1 90 0.9 ENE 6 9 3 5 1017.2 1017.2 1.6
22/10:00pm 15.2 14.9 13.4 89 1.0 N 7 13 4 7 1017.1 1017.1 1.6
22/09:30pm 15.3 15.0 13.3 88 1.1 NNE 7 11 4 6 1017.2 1017.2 1.2
22/09:00pm 15.2 16.3 13.4 89 1.0 CALM 0 0 0 0 1016.5 1016.5 1.0
22/08:30pm 15.8 16.8 13.3 85 1.4 CALM 0 4 0 2 1015.5 1015.5 0.8
22/08:00pm 18.2 16.8 9.5 57 4.6 NNW 7 13 4 7 1015.8 1015.8 0.0
22/07:30pm 18.7 16.4 8.9 53 5.1 NNW 11 20 6 11 1015.4 1015.4 0.0
22/07:00pm 18.8 16.4 8.6 51 5.3 N 11 20 6 11 1015.2 1015.2 0.0
22/06:30pm 19.0 16.2 8.6 51 5.4 N 13 24 7 13 1014.9 1014.9 0.0
22/06:00pm 18.5 16.7 9.4 55 4.8 N 9 15 5 8 1014.5 1014.5 0.0
22/05:30pm 18.4 16.3 9.7 57 4.6 N 11 19 6 10 1014.2 1014.2 0.0
22/05:00pm 18.5 16.7 9.4 55 4.8 N 9 15 5 8 1014.2 1014.2 0.0
22/04:30pm 17.7 16.9 11.0 65 3.6 NNE 6 9 3 5 1013.9 1013.9 0.0
22/04:00pm 19.7 17.4 7.6 45 6.2 N 9 13 5 7 1013.5 1013.5 0.0
22/03:30pm 19.8 17.1 7.3 44 6.4 NNE 11 15 6 8 1012.4 1012.4 0.0
22/03:00pm 19.6 16.6 7.7 46 6.1 NNE 13 22 7 12 1012.2 1012.2 0.0
22/02:30pm 19.8 17.1 7.3 44 6.4 NNE 11 20 6 11 1012.1 1012.1 0.0
22/02:00pm 18.8 17.3 8.4 51 5.4 NNE 6 9 3 5 1012.7 1012.7 0.0
22/01:30pm 18.6 16.5 8.1 50 5.4 N 9 17 5 9 1013.2 1013.2 0.0
22/01:00pm 18.1 16.8 9.1 55 4.7 ENE 6 13 3 7 1013.7 1013.7 0.0
22/12:30pm 18.8 15.8 7.6 48 5.7 NNE 13 24 7 13 1014.6 1014.6 0.0
22/12:00pm 19.2 16.3 6.6 44 6.3 NNE 11 20 6 11 1015.0 1015.0 0.0
22/11:30am 18.9 16.4 6.5 44 6.2 NNE 9 17 5 9 1015.7 1015.7 0.0
22/11:00am 19.0 15.7 6.3 43 6.3 N 13 19 7 10 1015.8 1015.8 0.0
22/10:30am 19.4 16.0 5.8 41 6.7 NNE 13 30 7 16 1016.0 1016.0 0.0
22/10:00am 18.9 15.9 5.9 42 6.4 NE 11 19 6 10 1015.5 1015.5 0.0
22/09:30am 18.3 15.3 5.9 44 6.1 NE 11 19 6 10 1016.0 1016.0 0.0
22/09:00am 17.9 15.7 6.4 47 5.7 NE 7 15 4 8 1017.1 1017.1 0.0
22/08:30am 17.0 15.2 7.2 52 4.9 NW 6 9 3 5 1017.4 1017.4 0.0
22/08:28am 17.0 15.0 7.2 52 4.9 NNW 7 13 4 7 1017.4 1017.4 0.0
22/08:00am 17.7 15.4 5.8 45 5.8 NE 7 13 4 7 1015.4 1015.4 0.0
22/07:30am 17.3 15.2 5.8 46 5.6 NE 6 9 3 5 1015.2 1015.2 0.0
22/07:00am 17.1 14.8 5.8 47 5.5 NE 7 13 4 7 1015.2 1015.2 0.0
22/06:30am 17.2 14.9 5.9 47 5.5 NE 7 13 4 7 1015.2 1015.2 0.0
22/06:00am 16.9 14.6 5.8 48 5.4 NE 7 11 4 6 1015.1 1015.1 0.0
22/05:30am 16.9 14.2 5.8 48 5.4 NE 9 17 5 9 1014.9 1014.9 0.0
22/05:00am 16.1 13.9 6.0 51 4.9 NE 7 11 4 6 1015.2 1015.2 0.0
22/04:30am 16.2 13.9 5.9 50 5.0 NE 7 13 4 7 1015.5 1015.5 0.0
22/04:00am 15.9 13.7 6.2 52 4.7 NE 7 11 4 6 1015.7 1015.7 0.0
22/03:30am 15.5 13.6 6.5 55 4.4 NE 6 11 3 6 1015.8 1015.8 0.0
22/03:00am 15.8 13.6 6.4 53 4.6 NE 7 13 4 7 1016.2 1016.2 0.0
22/02:30am 16.1 13.9 6.0 51 4.9 NE 7 15 4 8 1016.3 1016.3 0.0
22/02:00am 15.7 13.6 6.5 54 4.5 NE 7 15 4 8 1016.5 1016.5 0.0
22/01:30am 14.6 12.9 7.5 62 3.5 NNE 6 11 3 6 1016.7 1016.7 0.0
22/01:00am 14.3 12.7 7.9 65 3.2 NE 6 9 3 5 1016.8 1016.8 0.0
22/12:30am 14.4 12.8 8.0 65 3.2 NNE 6 9 3 5 1017.0 1017.0 0.0
22/12:00am 12.9 12.1 8.0 72 2.4 NE 2 9 1 5 1017.1 1017.1 0.0
 
Date/Time
CST
Temp
°C
App
Temp
°C
Dew
Point
°C
Rel
Hum
%
Delta-T
°C
Wind Press
QNH
hPa
Press
MSL
hPa
Rain since
9am
mm
Dir  Spd
km/h
Gust
km/h
Spd
kts
Gust
kts
21/11:30pm 11.8 11.5 8.8 82 1.5 CALM 0 0 0 0 1017.3 1017.3 0.0
21/11:00pm 12.1 11.8 8.7 80 1.7 CALM 0 0 0 0 1017.4 1017.4 0.0
21/10:30pm 12.3 12.1 9.1 81 1.6 CALM 0 0 0 0 1017.2 1017.2 0.0
21/10:00pm 12.3 12.1 8.9 80 1.7 CALM 0 0 0 0 1017.4 1017.4 0.0
21/09:30pm 12.4 12.2 9.2 81 1.6 CALM 0 0 0 0 1017.6 1017.6 0.0
21/09:00pm 13.0 12.8 9.2 78 1.9 CALM 0 0 0 0 1017.7 1017.7 0.0
21/08:30pm 13.4 13.3 9.3 76 2.1 CALM 0 0 0 0 1017.6 1017.6 0.0
21/08:00pm 13.8 13.8 9.7 76 2.1 CALM 0 0 0 0 1017.5 1017.5 0.0
21/07:30pm 14.4 14.4 9.8 74 2.4 CALM 0 0 0 0 1017.5 1017.5 0.0
21/07:00pm 15.4 15.5 10.0 70 2.8 CALM 0 0 0 0 1017.2 1017.2 0.0
21/06:30pm 16.3 15.1 9.6 64 3.5 ESE 6 9 3 5 1017.0 1017.0 0.0
21/06:00pm 16.7 16.6 9.4 62 3.8 CALM 0 0 0 0 1016.7 1016.7 0.0
21/05:30pm 18.4 18.3 9.5 56 4.7 CALM 0 0 0 0 1016.6 1016.6 0.0
21/05:00pm 19.7 18.3 8.8 49 5.7 WNW 6 9 3 5 1016.4 1016.4 0.0
21/04:30pm 20.6 19.0 8.8 46 6.2 WNW 7 11 4 6 1016.4 1016.4 0.0
21/04:00pm 21.9 20.4 9.2 44 6.8 WNW 7 13 4 7 1016.3 1016.3 0.0
21/03:30pm 22.2 20.1 8.4 41 7.3 NW 9 17 5 9 1016.3 1016.3 0.0
21/03:00pm 22.4 20.3 8.4 40 7.4 NW 9 15 5 8 1016.2 1016.2 0.0
21/02:30pm 22.8 20.8 8.7 40 7.5 NW 9 17 5 9 1016.2 1016.2 0.0
21/02:00pm 22.8 20.6 9.2 42 7.3 NNW 11 19 6 10 1016.4 1016.4 0.0
21/01:30pm 21.8 19.3 8.3 42 7.1 N 11 17 6 9 1016.5 1016.5 0.0
21/01:00pm 22.1 20.2 9.2 43 6.9 N 9 15 5 8 1016.8 1016.8 0.0
21/12:30pm 21.4 19.5 9.2 45 6.5 NNW 9 19 5 10 1017.1 1017.1 0.0
21/12:00pm 21.4 18.7 9.0 45 6.6 N 13 20 7 11 1017.6 1017.6 0.0
21/11:30am 20.5 17.7 8.7 46 6.2 N 13 20 7 11 1017.9 1017.9 0.0
21/11:00am 20.4 17.7 8.8 47 6.1 N 13 20 7 11 1018.4 1018.4 0.0
21/10:30am 19.8 17.5 9.0 49 5.7 NNE 11 20 6 11 1018.7 1018.7 0.0
21/10:00am 19.3 17.2 9.7 53 5.1 N 11 17 6 9 1018.7 1018.7 0.0
21/09:30am 18.3 16.8 9.1 55 4.8 NNE 7 15 4 8 1018.8 1018.8 0.0
21/09:00am 17.2 15.9 9.3 59 4.1 NE 6 9 3 5 1018.7 1018.7 0.0
21/08:30am 14.7 14.7 9.9 73 2.5 CALM 0 0 0 0 1018.5 1018.5 0.0
21/08:00am 11.5 11.4 9.3 86 1.1 CALM 0 0 0 0 1018.2 1018.2 0.0
21/07:30am 10.1 9.8 8.7 91 0.7 CALM 0 0 0 0 1017.9 1017.9 0.0
21/07:00am 10.6 10.3 8.8 89 0.9 CALM 0 0 0 0 1017.6 1017.6 0.0
21/06:30am 10.9 10.7 8.9 87 1.0 CALM 0 0 0 0 1017.3 1017.3 0.0
21/06:00am 10.9 10.7 9.1 89 0.9 CALM 0 0 0 0 1017.1 1017.1 0.0
21/05:30am 11.1 10.9 9.1 87 1.0 CALM 0 0 0 0 1017.0 1017.0 0.0
21/05:00am 11.4 11.2 9.2 86 1.1 CALM 0 0 0 0 1016.9 1016.9 0.0
21/04:30am 11.8 11.6 9.2 84 1.3 CALM 0 0 0 0 1016.7 1016.7 0.0
21/04:00am 12.2 12.0 9.2 82 1.5 CALM 0 0 0 0 1016.8 1016.8 0.0
21/03:30am 12.8 12.2 9.0 78 1.9 ENE 2 7 1 4 1016.5 1016.5 0.0
21/03:00am 13.2 11.8 9.0 75 2.1 ENE 6 7 3 4 1016.6 1016.6 0.0
21/02:30am 13.1 12.1 8.9 75 2.1 ENE 4 7 2 4 1016.8 1016.8 0.0
21/02:00am 13.3 12.6 8.7 73 2.3 E 2 9 1 5 1016.7 1016.7 0.0
21/01:30am 13.7 12.6 8.5 71 2.6 ENE 4 7 2 4 1016.8 1016.8 0.0
21/01:00am 13.8 13.5 8.6 71 2.6 CALM 0 0 0 0 1017.0 1017.0 0.0
21/12:30am 14.1 13.8 8.8 70 2.7 CALM 0 0 0 0 1017.1 1017.1 0.0
21/12:00am 14.4 13.0 8.7 68 2.9 NE 6 9 3 5 1016.9 1016.9 0.0
 
Date/Time
CST
Temp
°C
App
Temp
°C
Dew
Point
°C
Rel
Hum
%
Delta-T
°C
Wind Press
QNH
hPa
Press
MSL
hPa
Rain since
9am
mm
Dir  Spd
km/h
Gust
km/h
Spd
kts
Gust
kts
20/11:30pm 14.4 13.4 8.9 69 2.8 NNE 4 9 2 5 1017.0 1017.0 0.0
20/11:00pm 14.3 13.8 9.2 71 2.6 NE 2 7 1 4 1017.0 1017.0 0.0
20/10:30pm 14.3 14.2 9.4 72 2.5 CALM 0 0 0 0 1016.9 1016.9 0.0
20/10:00pm 15.1 14.9 9.0 67 3.1 CALM 0 0 0 0 1016.9 1016.9 0.0
20/09:30pm 15.7 15.2 9.5 66 3.2 ENE 2 7 1 4 1016.7 1016.7 0.0
20/09:00pm 16.2 16.1 9.5 64 3.5 CALM 0 7 0 4 1016.7 1016.7 0.0
20/08:30pm 15.8 16.0 10.5 71 2.8 CALM 0 7 0 4 1016.6 1016.6 0.0
20/08:00pm 15.7 16.1 11.2 74 2.4 CALM 0 0 0 0 1016.3 1016.3 0.0
20/07:30pm 15.8 16.0 10.7 71 2.7 CALM 0 0 0 0 1016.1 1016.1 0.0
20/07:00pm 16.1 16.2 10.2 68 3.1 CALM 0 6 0 3 1015.8 1015.8 0.0
20/06:30pm 16.6 16.2 9.9 64 3.5 ENE 2 7 1 4 1015.4 1015.4 0.0
20/06:00pm 17.7 16.5 9.5 58 4.3 NNE 6 9 3 5 1015.1 1015.1 0.0
20/05:30pm 18.4 17.2 9.5 56 4.7 NW 6 9 3 5 1014.7 1014.7 0.0
20/05:00pm 18.8 17.5 9.1 53 5.1 NNW 6 11 3 6 1014.5 1014.5 0.0
20/04:30pm 19.4 17.5 8.9 50 5.5 NW 9 19 5 10 1014.5 1014.5 0.0
20/04:00pm 19.7 17.9 9.3 51 5.5 NW 9 20 5 11 1014.4 1014.4 0.0
20/03:30pm 19.8 17.7 9.7 52 5.4 NW 11 20 6 11 1014.4 1014.4 0.0
20/03:00pm 20.2 18.4 10.9 55 5.1 NW 11 17 6 9 1014.4 1014.4 0.0

Latest Capital City Observations: Canberra | Sydney | Melbourne | Brisbane | Adelaide | Perth | Hobart | Darwin

Other Formats:

Comma delimited format used in spreadsheet applications
http://www.bom.gov.au/fwo/IDS60901/IDS60901.94675.axf

JavaScript Object Notation format (JSON) in row-major order
http://www.bom.gov.au/fwo/IDS60901/IDS60901.94675.json